createdAt,value
2022-08-21T00:02:26.838Z,14.55
2022-08-21T00:04:57.354Z,14.38
2022-08-21T00:07:25.310Z,19.25
2022-08-21T00:09:53.960Z,15.02
2022-08-21T00:12:24.014Z,11.85
2022-08-21T00:14:51.195Z,14.88
2022-08-21T00:17:23.979Z,13.98
2022-08-21T00:19:50.883Z,10.02
2022-08-21T00:22:18.258Z,11.02
2022-08-21T00:24:45.303Z,11.57
2022-08-21T00:27:12.219Z,10.10
2022-08-21T00:29:39.092Z,11.75
2022-08-21T00:32:06.122Z,11.18
2022-08-21T00:34:33.061Z,15.13
2022-08-21T00:36:59.928Z,12.48
2022-08-21T00:39:27.002Z,15.80
2022-08-21T00:41:53.963Z,12.38
2022-08-21T00:44:20.825Z,12.50
2022-08-21T00:46:47.859Z,16.08
2022-08-21T00:49:14.817Z,13.30
2022-08-21T00:51:48.328Z,16.08
2022-08-21T00:54:18.640Z,14.82
2022-08-21T00:56:49.167Z,12.98
2022-08-21T00:59:18.792Z,14.50
2022-08-21T01:01:46.262Z,10.70
2022-08-21T01:04:13.748Z,13.32
2022-08-21T01:06:40.619Z,17.17
2022-08-21T01:09:07.558Z,17.20
2022-08-21T01:11:34.965Z,13.77
2022-08-21T01:14:02.018Z,12.45
2022-08-21T01:16:29.966Z,20.45
2022-08-21T01:18:57.036Z,15.93
2022-08-21T01:21:28.276Z,12.75
2022-08-21T01:23:57.474Z,15.80
2022-08-21T01:26:34.341Z,12.02
2022-08-21T01:29:23.283Z,15.57
2022-08-21T01:31:50.277Z,14.38
2022-08-21T01:34:17.285Z,15.13
2022-08-21T01:36:46.808Z,14.48
2022-08-21T01:39:15.446Z,21.67
2022-08-21T01:41:42.700Z,14.10
2022-08-21T01:44:09.815Z,14.52
2022-08-21T01:46:36.908Z,16.02
2022-08-21T01:49:05.598Z,17.77
2022-08-21T01:51:33.067Z,14.80
2022-08-21T01:53:59.967Z,18.73
2022-08-21T01:56:28.750Z,22.63
2022-08-21T01:58:55.818Z,18.05
2022-08-21T02:01:22.830Z,15.75
2022-08-21T02:03:49.741Z,14.27
2022-08-21T02:06:19.231Z,20.40
2022-08-21T02:08:47.287Z,12.50
2022-08-21T02:11:14.492Z,20.77
2022-08-21T02:13:41.831Z,18.83
2022-08-21T02:16:10.791Z,16.02
2022-08-21T02:18:37.893Z,16.27
2022-08-21T02:21:06.625Z,14.40
2022-08-21T02:23:33.781Z,15.02
2022-08-21T02:26:07.731Z,16.15
2022-08-21T02:28:35.437Z,16.60
2022-08-21T02:31:02.341Z,19.65
2022-08-21T02:33:29.930Z,19.95
2022-08-21T02:35:57.359Z,15.98
2022-08-21T02:38:27.827Z,15.00
2022-08-21T02:40:55.413Z,12.32
2022-08-21T02:43:24.383Z,18.58
2022-08-21T02:45:52.269Z,20.33
2022-08-21T02:48:22.971Z,22.17
2022-08-21T02:51:01.287Z,17.75
2022-08-21T02:53:29.623Z,19.52
2022-08-21T02:55:58.898Z,16.77
2022-08-21T02:58:30.245Z,22.80
2022-08-21T03:00:57.232Z,21.70
2022-08-21T03:03:24.121Z,16.00
2022-08-21T03:05:51.452Z,18.52
2022-08-21T03:08:19.376Z,14.20
2022-08-21T03:10:53.361Z,19.42
2022-08-21T03:13:24.565Z,16.20
2022-08-21T03:15:51.693Z,22.58
2022-08-21T03:18:18.959Z,14.32
2022-08-21T03:20:47.042Z,15.40
2022-08-21T03:23:18.478Z,20.92
2022-08-21T03:25:47.759Z,22.02
2022-08-21T03:28:17.683Z,20.50
2022-08-21T03:30:47.505Z,25.73
2022-08-21T03:33:15.488Z,15.68
2022-08-21T03:35:48.069Z,19.63
2022-08-21T03:38:15.379Z,20.15
2022-08-21T03:40:43.182Z,15.23
2022-08-21T03:43:10.880Z,20.48
2022-08-21T03:45:39.398Z,19.63
2022-08-21T03:48:08.047Z,22.00
2022-08-21T03:50:41.006Z,15.20
2022-08-21T03:53:16.925Z,24.52
2022-08-21T03:55:49.314Z,18.02
2022-08-21T03:58:19.267Z,19.00
2022-08-21T04:00:48.146Z,21.45
2022-08-21T04:03:15.476Z,22.40
2022-08-21T04:05:42.983Z,24.15
2022-08-21T04:08:09.898Z,19.17
2022-08-21T04:10:40.055Z,26.52
2022-08-21T04:13:08.716Z,18.80
2022-08-21T04:15:36.068Z,22.70
2022-08-21T04:18:03.598Z,26.58
2022-08-21T04:20:30.481Z,14.93
2022-08-21T04:22:57.659Z,21.02
2022-08-21T04:25:26.815Z,20.63
2022-08-21T04:27:54.120Z,22.55
2022-08-21T04:30:21.150Z,20.92
2022-08-21T04:32:56.693Z,23.58
2022-08-21T04:35:25.019Z,18.02
2022-08-21T04:37:52.056Z,21.92
2022-08-21T04:40:21.140Z,20.88
2022-08-21T04:42:54.715Z,25.88
2022-08-21T04:45:27.879Z,23.20
2022-08-21T04:47:57.317Z,20.05
2022-08-21T04:50:49.593Z,22.85
2022-08-21T04:53:21.186Z,25.52
2022-08-21T04:55:48.857Z,22.80
2022-08-21T04:58:18.526Z,19.95
2022-08-21T05:00:46.984Z,23.80
2022-08-21T05:03:17.052Z,23.42
2022-08-21T05:05:44.828Z,20.25
2022-08-21T05:08:15.427Z,24.52
2022-08-21T05:10:44.158Z,18.13
2022-08-21T05:13:13.481Z,16.80
2022-08-21T05:15:41.425Z,21.92
2022-08-21T05:18:08.367Z,21.48
2022-08-21T05:20:35.601Z,20.88
2022-08-21T05:23:08.986Z,14.48
2022-08-21T05:25:36.084Z,20.27
2022-08-21T05:28:03.693Z,23.92
2022-08-21T05:30:30.743Z,20.30
2022-08-21T05:33:03.229Z,22.40
2022-08-21T05:35:30.838Z,20.23
2022-08-21T05:37:58.902Z,32.60
2022-08-21T05:40:26.618Z,19.55
2022-08-21T05:42:56.793Z,20.15
2022-08-21T05:45:42.084Z,21.27
2022-08-21T05:48:24.864Z,17.30
2022-08-21T05:50:53.280Z,21.92
2022-08-21T05:53:21.978Z,24.02
2022-08-21T05:55:49.317Z,20.77
2022-08-21T05:58:18.744Z,18.23
2022-08-21T06:00:48.323Z,17.63
2022-08-21T06:03:25.318Z,22.55
2022-08-21T06:05:52.585Z,20.58
2022-08-21T06:08:20.863Z,14.10
2022-08-21T06:10:49.499Z,19.55
2022-08-21T06:13:18.345Z,19.60
2022-08-21T06:15:45.411Z,23.08
2022-08-21T06:18:13.085Z,18.08
2022-08-21T06:20:41.211Z,21.25
2022-08-21T06:23:08.190Z,19.00
2022-08-21T06:25:35.544Z,15.68
2022-08-21T06:28:07.517Z,19.40
2022-08-21T06:30:37.082Z,17.98
2022-08-21T06:33:04.934Z,20.08
2022-08-21T06:35:31.911Z,18.90
2022-08-21T06:37:59.496Z,17.80
2022-08-21T06:40:30.448Z,17.38
2022-08-21T06:43:10.769Z,19.55
2022-08-21T06:45:42.092Z,19.95
2022-08-21T06:48:09.057Z,17.95
2022-08-21T06:50:36.530Z,17.75
2022-08-21T06:53:10.876Z,18.85
2022-08-21T06:55:38.787Z,14.50
2022-08-21T06:58:06.270Z,15.40
2022-08-21T07:00:33.656Z,16.27
2022-08-21T07:03:01.013Z,16.48
2022-08-21T07:05:30.373Z,14.75
2022-08-21T07:07:58.096Z,16.65
2022-08-21T07:10:26.860Z,19.50
2022-08-21T07:13:01.066Z,16.88
2022-08-21T07:15:30.443Z,21.23
2022-08-21T07:17:58.595Z,22.38
2022-08-21T07:20:26.837Z,21.48
2022-08-21T07:22:54.010Z,19.25
2022-08-21T07:25:21.027Z,16.92
2022-08-21T07:27:47.863Z,17.75
2022-08-21T07:30:15.118Z,15.13
2022-08-21T07:32:41.947Z,14.35
2022-08-21T07:35:08.993Z,24.17
2022-08-21T07:37:36.235Z,18.67
2022-08-21T07:40:03.702Z,20.77
2022-08-21T07:42:30.996Z,19.88
2022-08-21T07:44:57.964Z,15.70
2022-08-21T07:47:38.685Z,16.27
2022-08-21T07:50:12.268Z,23.63
2022-08-21T07:52:40.469Z,21.30
2022-08-21T07:55:09.619Z,22.42
2022-08-21T07:57:36.583Z,18.38
2022-08-21T08:00:06.774Z,19.45
2022-08-21T08:05:08.762Z,17.30
2022-08-21T08:07:35.720Z,15.38
2022-08-21T08:10:04.835Z,14.25
2022-08-21T08:12:31.793Z,16.58
2022-08-21T08:14:59.977Z,17.52
2022-08-21T08:17:27.429Z,19.77
2022-08-21T08:19:55.019Z,13.05
2022-08-21T08:22:26.585Z,11.75
2022-08-21T08:24:54.045Z,16.88
2022-08-21T08:27:21.824Z,14.13
2022-08-21T08:29:49.712Z,11.50
2022-08-21T08:32:16.835Z,14.52
2022-08-21T08:34:44.175Z,14.85
2022-08-21T08:37:11.962Z,12.77
2022-08-21T08:39:39.139Z,9.27
2022-08-21T08:42:32.866Z,6.20
2022-08-21T08:45:06.428Z,9.98
2022-08-21T08:47:38.569Z,13.35
2022-08-21T08:50:46.462Z,9.48
2022-08-21T08:53:21.260Z,12.35
2022-08-21T08:55:52.219Z,10.80
2022-08-21T08:58:28.830Z,14.02
2022-08-21T09:00:56.347Z,13.05
2022-08-21T09:03:28.080Z,11.77
2022-08-21T09:06:25.375Z,13.23
2022-08-21T09:09:03.877Z,11.43
2022-08-21T09:11:49.475Z,7.57
2022-08-21T09:14:54.165Z,11.68
2022-08-21T09:17:31.620Z,10.52
2022-08-21T09:20:07.584Z,9.60
2022-08-21T09:23:01.692Z,12.15
2022-08-21T09:25:33.972Z,13.05
2022-08-21T09:28:00.931Z,12.40
2022-08-21T09:30:32.154Z,9.73
2022-08-21T09:32:59.608Z,12.82
2022-08-21T09:35:27.183Z,9.68
2022-08-21T09:38:04.309Z,6.30
2022-08-21T09:40:37.465Z,11.80
2022-08-21T09:43:08.095Z,8.48
2022-08-21T09:45:36.866Z,11.60
2022-08-21T09:48:19.322Z,11.02
2022-08-21T09:50:48.481Z,9.32
2022-08-21T09:53:35.668Z,10.82
2022-08-21T09:56:46.766Z,8.93
2022-08-21T09:59:36.290Z,13.05
2022-08-21T10:02:23.765Z,10.02
2022-08-21T10:04:53.775Z,7.40
2022-08-21T10:07:23.979Z,10.40
2022-08-21T10:10:14.516Z,8.50
2022-08-21T10:12:49.497Z,9.35
2022-08-21T10:15:34.479Z,8.18
2022-08-21T10:18:23.159Z,8.47
2022-08-21T10:21:12.156Z,10.75
2022-08-21T10:23:57.507Z,10.00
2022-08-21T10:26:50.503Z,6.45
2022-08-21T10:29:45.354Z,11.25
2022-08-21T10:32:32.814Z,11.07
2022-08-21T10:35:20.808Z,14.68
2022-08-21T10:38:01.409Z,13.85
2022-08-21T10:40:47.751Z,12.93
2022-08-21T10:43:33.208Z,8.73
2022-08-21T10:46:18.997Z,8.25
2022-08-21T10:51:33.351Z,13.55
2022-08-21T10:54:09.471Z,10.40
2022-08-21T10:56:41.484Z,8.63
2022-08-21T10:59:42.023Z,10.03
2022-08-21T11:02:28.662Z,9.80
2022-08-21T11:05:08.290Z,9.82
2022-08-21T11:07:59.501Z,7.25
2022-08-21T11:10:38.134Z,10.02
2022-08-21T11:13:22.312Z,10.55
2022-08-21T11:16:17.127Z,11.18
2022-08-21T11:18:54.808Z,9.63
2022-08-21T11:21:47.659Z,9.52
2022-08-21T11:24:29.533Z,10.20
2022-08-21T11:27:00.906Z,8.48
2022-08-21T11:29:37.706Z,10.85
2022-08-21T11:32:42.033Z,11.85
2022-08-21T11:35:34.586Z,9.85
2022-08-21T11:38:26.260Z,9.18
2022-08-21T11:41:19.351Z,9.77
2022-08-21T11:44:06.329Z,8.35
2022-08-21T11:46:36.113Z,10.23
2022-08-21T11:49:35.600Z,9.20
2022-08-21T11:52:32.416Z,8.23
2022-08-21T11:55:25.764Z,12.20
2022-08-21T11:58:31.214Z,10.73
2022-08-21T12:01:06.151Z,8.27
2022-08-21T12:03:37.469Z,9.05
2022-08-21T12:06:07.783Z,9.00
2022-08-21T12:08:35.887Z,8.32
2022-08-21T12:11:17.185Z,7.88
2022-08-21T12:13:55.869Z,10.25
2022-08-21T12:16:40.095Z,13.95
2022-08-21T12:19:11.327Z,13.63
2022-08-21T12:21:55.558Z,10.77
2022-08-21T12:24:28.408Z,8.02
2022-08-21T12:27:14.767Z,10.93
2022-08-21T12:29:48.535Z,11.48
2022-08-21T12:32:15.385Z,10.60
2022-08-21T12:35:24.270Z,11.55
2022-08-21T12:38:06.311Z,11.18
2022-08-21T12:40:41.153Z,12.23
2022-08-21T12:43:16.612Z,8.13
2022-08-21T12:45:46.522Z,10.15
2022-08-21T12:48:34.695Z,8.77
2022-08-21T12:51:18.868Z,9.60
2022-08-21T12:53:50.471Z,9.77
2022-08-21T12:56:21.253Z,7.97
2022-08-21T12:58:51.964Z,10.13
2022-08-21T13:01:44.979Z,11.13
2022-08-21T13:04:18.357Z,10.30
2022-08-21T13:06:50.917Z,8.73
2022-08-21T13:09:24.423Z,9.15
2022-08-21T13:11:52.522Z,11.30
2022-08-21T13:14:31.392Z,13.07
2022-08-21T13:17:00.812Z,8.85
2022-08-21T13:19:30.447Z,9.73
2022-08-21T13:21:57.835Z,9.00
2022-08-21T13:24:45.927Z,7.93
2022-08-21T13:27:43.226Z,9.13
2022-08-21T13:30:15.070Z,10.07
2022-08-21T13:32:47.116Z,17.25
2022-08-21T13:35:20.762Z,10.95
2022-08-21T13:37:50.874Z,10.73
2022-08-21T13:40:25.673Z,11.30
2022-08-21T13:42:53.568Z,8.95
2022-08-21T13:45:27.064Z,11.27
2022-08-21T13:47:54.815Z,8.35
2022-08-21T13:50:25.303Z,9.75
2022-08-21T13:53:02.569Z,9.27
2022-08-21T13:55:42.833Z,9.32
2022-08-21T13:58:11.992Z,11.93
2022-08-21T14:00:51.111Z,9.43
2022-08-21T14:03:31.614Z,10.10
2022-08-21T14:06:00.462Z,11.00
2022-08-21T14:08:35.471Z,9.18
2022-08-21T14:11:05.724Z,10.90
2022-08-21T14:13:42.979Z,12.23
2022-08-21T14:16:41.239Z,11.30
2022-08-21T14:19:18.818Z,11.40
2022-08-21T14:21:46.934Z,11.80
2022-08-21T14:24:31.753Z,10.60
2022-08-21T14:27:07.633Z,8.15
2022-08-21T14:29:42.069Z,11.20
2022-08-21T14:32:21.438Z,12.35
2022-08-21T14:34:51.442Z,9.48
2022-08-21T14:37:19.078Z,12.27
2022-08-21T14:39:46.643Z,13.30
2022-08-21T14:42:14.105Z,12.70
2022-08-21T14:44:41.121Z,9.63
2022-08-21T14:47:09.863Z,13.57
2022-08-21T14:49:36.970Z,13.75
2022-08-21T14:52:04.132Z,10.50
2022-08-21T14:54:32.979Z,16.05
2022-08-21T14:57:04.380Z,8.95
2022-08-21T14:59:33.626Z,11.68
2022-08-21T15:02:01.130Z,13.43
2022-08-21T15:04:28.164Z,14.05
2022-08-21T15:06:55.029Z,13.98
2022-08-21T15:09:22.417Z,11.20
2022-08-21T15:11:49.468Z,10.45
2022-08-21T15:14:22.525Z,10.57
2022-08-21T15:16:51.363Z,10.48
2022-08-21T15:19:18.294Z,10.73
2022-08-21T15:21:45.271Z,13.82
2022-08-21T15:24:12.148Z,12.32
2022-08-21T15:26:39.540Z,11.23
2022-08-21T15:29:08.237Z,9.82
2022-08-21T15:31:36.406Z,15.23
2022-08-21T15:34:03.971Z,11.80
2022-08-21T15:36:30.955Z,14.05
2022-08-21T15:38:57.990Z,12.10
2022-08-21T15:41:24.898Z,14.85
2022-08-21T15:43:53.990Z,10.82
2022-08-21T15:46:22.067Z,18.27
2022-08-21T15:48:49.286Z,10.95
2022-08-21T15:51:17.667Z,12.57
2022-08-21T15:53:45.395Z,11.40
2022-08-21T15:56:24.067Z,10.02
2022-08-21T15:58:53.253Z,15.25
2022-08-21T16:01:21.855Z,11.05
2022-08-21T16:03:53.325Z,9.40
2022-08-21T16:06:38.384Z,12.25
2022-08-21T16:09:07.340Z,10.98
2022-08-21T16:11:34.198Z,12.02
2022-08-21T16:14:01.118Z,11.15
2022-08-21T16:16:29.397Z,14.38
2022-08-21T16:18:58.755Z,9.75
2022-08-21T16:21:25.708Z,14.15
2022-08-21T16:23:52.727Z,12.48
2022-08-21T16:26:19.591Z,11.95
2022-08-21T16:28:50.354Z,11.40
2022-08-21T16:31:17.780Z,14.15
2022-08-21T16:33:52.473Z,11.23
2022-08-21T16:36:26.393Z,11.85
2022-08-21T16:38:54.976Z,14.75
2022-08-21T16:41:23.985Z,15.48
2022-08-21T16:43:52.199Z,14.00
2022-08-21T16:46:21.617Z,11.70
2022-08-21T16:48:50.131Z,18.25
2022-08-21T16:51:17.449Z,11.98
2022-08-21T16:53:44.667Z,12.15
2022-08-21T16:56:14.398Z,14.90
2022-08-21T16:58:44.160Z,14.50
2022-08-21T17:01:15.188Z,13.55
2022-08-21T17:03:48.216Z,12.98
2022-08-21T17:06:15.979Z,14.77
2022-08-21T17:08:44.448Z,13.43
2022-08-21T17:11:37.158Z,11.13
2022-08-21T17:14:19.546Z,14.88
2022-08-21T17:16:49.779Z,11.68
2022-08-21T17:19:17.593Z,12.25
2022-08-21T17:21:44.590Z,14.60
2022-08-21T17:24:15.433Z,18.30
2022-08-21T17:26:43.689Z,9.82
2022-08-21T17:29:14.331Z,15.98
2022-08-21T17:31:43.039Z,8.48
2022-08-21T17:34:11.550Z,13.23
2022-08-21T17:36:38.509Z,12.40
2022-08-21T17:39:05.758Z,14.75
2022-08-21T17:41:33.479Z,9.85
2022-08-21T17:44:07.188Z,13.63
2022-08-21T17:46:34.353Z,10.75
2022-08-21T17:49:01.572Z,14.82
2022-08-21T17:51:28.711Z,15.77
2022-08-21T17:53:55.582Z,13.73
2022-08-21T17:56:28.259Z,16.30
2022-08-21T17:58:55.258Z,11.65
2022-08-21T18:01:22.215Z,12.10
2022-08-21T18:03:49.347Z,12.75
2022-08-21T18:06:18.128Z,14.18
2022-08-21T18:08:45.873Z,14.23
2022-08-21T18:11:23.061Z,18.83
2022-08-21T18:13:53.623Z,11.65
2022-08-21T18:16:22.088Z,11.52
2022-08-21T18:18:51.657Z,16.40
2022-08-21T18:21:19.032Z,10.63
2022-08-21T18:23:46.178Z,13.30
2022-08-21T18:26:25.361Z,13.50
2022-08-21T18:28:52.743Z,11.50
2022-08-21T18:31:21.061Z,11.38
2022-08-21T18:33:58.177Z,15.18
2022-08-21T18:36:27.615Z,12.02
2022-08-21T18:39:08.641Z,14.48
2022-08-21T18:41:45.556Z,10.35
2022-08-21T18:44:13.392Z,14.10
2022-08-21T18:46:40.607Z,12.70
2022-08-21T18:49:07.531Z,12.05
2022-08-21T18:51:34.421Z,13.25
2022-08-21T18:54:01.323Z,10.60
2022-08-21T18:56:29.172Z,14.18
2022-08-21T18:58:58.280Z,15.43
2022-08-21T19:01:25.821Z,12.73
2022-08-21T19:03:53.059Z,12.88
2022-08-21T19:06:19.956Z,11.27
2022-08-21T19:08:46.877Z,9.60
2022-08-21T19:11:16.586Z,13.65
2022-08-21T19:13:53.310Z,16.02
2022-08-21T19:16:21.904Z,7.68
2022-08-21T19:18:49.080Z,12.65
2022-08-21T19:21:16.463Z,10.25
2022-08-21T19:23:48.254Z,9.80
2022-08-21T19:26:22.336Z,12.23
2022-08-21T19:28:52.122Z,12.32
2022-08-21T19:31:23.695Z,12.13
2022-08-21T19:33:59.038Z,11.50
2022-08-21T19:36:29.994Z,16.58
2022-08-21T19:38:57.398Z,21.17
2022-08-21T19:41:27.677Z,12.45
2022-08-21T19:43:58.050Z,19.40
2022-08-21T19:46:35.178Z,18.52
2022-08-21T19:49:04.460Z,17.58
2022-08-21T19:51:35.022Z,17.63
2022-08-21T19:54:02.350Z,23.80
2022-08-21T19:56:32.348Z,14.52
2022-08-21T19:59:03.069Z,13.13
2022-08-21T20:01:32.991Z,16.52
2022-08-21T20:04:00.265Z,15.73
2022-08-21T20:06:27.338Z,18.65
2022-08-21T20:08:55.331Z,17.48
2022-08-21T20:11:38.867Z,14.93
2022-08-21T20:14:07.576Z,13.00
2022-08-21T20:16:34.850Z,18.17
2022-08-21T20:19:05.627Z,17.90
2022-08-21T20:21:43.319Z,18.83
2022-08-21T20:24:15.399Z,14.18
2022-08-21T20:26:49.370Z,18.70
2022-08-21T20:29:24.521Z,26.00
2022-08-21T20:31:59.851Z,21.38
2022-08-21T20:34:26.729Z,18.35
2022-08-21T20:36:53.696Z,20.52
2022-08-21T20:39:23.727Z,21.25
2022-08-21T20:41:52.627Z,22.08
2022-08-21T20:44:20.653Z,20.85
2022-08-21T20:46:47.771Z,20.67
2022-08-21T20:49:21.354Z,21.15
2022-08-21T20:51:52.021Z,17.33
2022-08-21T20:54:44.183Z,17.95
2022-08-21T20:57:21.860Z,17.38
2022-08-21T20:59:56.251Z,18.73
2022-08-21T21:03:05.901Z,16.80
2022-08-21T21:05:48.177Z,17.58
2022-08-21T21:08:39.522Z,18.65
2022-08-21T21:11:09.841Z,16.75
2022-08-21T21:13:51.358Z,14.93
2022-08-21T21:16:24.499Z,16.13
2022-08-21T21:19:10.845Z,16.73
2022-08-21T21:21:51.255Z,16.35
2022-08-21T21:24:48.180Z,14.73
2022-08-21T21:27:28.984Z,12.70
2022-08-21T21:30:07.062Z,17.48
2022-08-21T21:32:39.605Z,13.43
2022-08-21T21:35:08.592Z,16.20
2022-08-21T21:38:02.427Z,15.43
2022-08-21T21:40:50.225Z,18.13
2022-08-21T21:43:46.876Z,15.43
2022-08-21T21:46:16.582Z,17.27
2022-08-21T21:48:57.407Z,18.70
2022-08-21T21:51:43.569Z,19.77
2022-08-21T21:54:16.476Z,23.38
2022-08-21T21:56:52.542Z,18.83
2022-08-21T21:59:39.663Z,16.00
2022-08-21T22:02:40.660Z,21.45
2022-08-21T22:05:50.473Z,19.08
2022-08-21T22:08:36.802Z,18.25
2022-08-21T22:11:24.382Z,13.63
2022-08-21T22:14:13.553Z,20.48
2022-08-21T22:16:43.797Z,17.80
2022-08-21T22:19:24.175Z,13.70
2022-08-21T22:22:07.509Z,19.48
2022-08-21T22:24:44.515Z,18.23
2022-08-21T22:27:17.511Z,21.73
2022-08-21T22:29:50.498Z,16.67
2022-08-21T22:32:40.389Z,19.95
2022-08-21T22:35:24.185Z,23.10
2022-08-21T22:37:57.518Z,20.00
2022-08-21T22:40:26.512Z,20.70
2022-08-21T22:43:01.024Z,23.20
2022-08-21T22:45:30.890Z,22.10
2022-08-21T22:48:05.876Z,20.13
2022-08-21T22:50:39.888Z,24.90
2022-08-21T22:53:08.961Z,18.98
2022-08-21T22:55:38.608Z,17.70
2022-08-21T22:58:11.818Z,21.73
2022-08-21T23:00:56.672Z,23.27
2022-08-21T23:03:26.602Z,20.05
2022-08-21T23:06:00.544Z,23.58
2022-08-21T23:08:32.171Z,18.25
2022-08-21T23:11:05.933Z,21.60
2022-08-21T23:13:42.602Z,21.80
2022-08-21T23:16:21.384Z,16.40
2022-08-21T23:19:11.548Z,19.23
2022-08-21T23:21:51.851Z,20.35
2022-08-21T23:24:34.011Z,14.73
2022-08-21T23:27:13.053Z,19.23
2022-08-21T23:30:12.513Z,17.40
2022-08-21T23:32:53.282Z,17.63
2022-08-21T23:35:59.838Z,17.98
2022-08-21T23:38:59.693Z,26.77
2022-08-21T23:41:36.796Z,20.88
2022-08-21T23:44:58.488Z,22.05
2022-08-21T23:48:10.939Z,19.35
2022-08-21T23:50:50.530Z,20.23
2022-08-21T23:53:37.074Z,14.05
2022-08-21T23:56:31.896Z,16.08
2022-08-21T23:59:29.657Z,16.02
